sensor_id;sensor_type;location;lat;lon;timestamp;P1;durP1;ratioP1;P2;durP2;ratioP2
9665;SDS011;4871;52.004;5.924;2023-02-01T00:00:00;10.90;;;2.60;;
9665;SDS011;4871;52.004;5.924;2023-02-01T00:01:04;10.90;;;2.60;;
9665;SDS011;4871;52.004;5.924;2023-02-01T00:02:00;10.90;;;2.60;;
9665;SDS011;4871;52.004;5.924;2023-02-01T00:03:00;10.90;;;2.60;;
9665;SDS011;4871;52.004;5.924;2023-02-01T00:04:00;10.90;;;2.60;;
9665;SDS011;4871;52.004;5.924;2023-02-01T00:05:00;10.90;;;2.60;;
9665;SDS011;4871;52.004;5.924;2023-02-01T00:06:00;10.90;;;2.60;;
9665;SDS011;4871;52.004;5.924;2023-02-01T00:07:01;10.90;;;2.60;;
9665;SDS011;4871;52.004;5.924;2023-02-01T00:08:00;10.90;;;2.60;;
9665;SDS011;4871;52.004;5.924;2023-02-01T00:09:00;10.90;;;2.60;;
9665;SDS011;4871;52.004;5.924;2023-02-01T00:10:00;10.90;;;2.60;;
9665;SDS011;4871;52.004;5.924;2023-02-01T00:11:02;10.90;;;2.60;;
9665;SDS011;4871;52.004;5.924;2023-02-01T00:12:01;10.90;;;2.60;;
9665;SDS011;4871;52.004;5.924;2023-02-01T00:13:00;10.90;;;2.60;;
9665;SDS011;4871;52.004;5.924;2023-02-01T00:14:00;10.90;;;2.60;;
9665;SDS011;4871;52.004;5.924;2023-02-01T00:15:00;10.90;;;2.60;;
9665;SDS011;4871;52.004;5.924;2023-02-01T00:16:05;10.90;;;2.60;;
9665;SDS011;4871;52.004;5.924;2023-02-01T00:17:01;10.90;;;2.60;;
9665;SDS011;4871;52.004;5.924;2023-02-01T00:18:00;10.90;;;2.60;;
9665;SDS011;4871;52.004;5.924;2023-02-01T00:19:03;10.90;;;2.60;;
9665;SDS011;4871;52.004;5.924;2023-02-01T00:20:00;10.90;;;2.60;;
9665;SDS011;4871;52.004;5.924;2023-02-01T00:21:00;10.90;;;2.60;;
9665;SDS011;4871;52.004;5.924;2023-02-01T00:22:00;10.90;;;2.60;;
9665;SDS011;4871;52.004;5.924;2023-02-01T00:23:00;10.90;;;2.60;;
9665;SDS011;4871;52.004;5.924;2023-02-01T00:24:00;10.90;;;2.60;;
9665;SDS011;4871;52.004;5.924;2023-02-01T00:25:00;11.00;;;2.90;;
9665;SDS011;4871;52.004;5.924;2023-02-01T00:26:02;11.00;;;2.90;;
9665;SDS011;4871;52.004;5.924;2023-02-01T00:27:00;11.00;;;2.90;;
9665;SDS011;4871;52.004;5.924;2023-02-01T00:28:00;11.00;;;2.90;;
9665;SDS011;4871;52.004;5.924;2023-02-01T00:29:02;11.00;;;2.90;;
9665;SDS011;4871;52.004;5.924;2023-02-01T00:30:00;11.00;;;2.90;;
9665;SDS011;4871;52.004;5.924;2023-02-01T00:31:01;11.00;;;2.90;;
9665;SDS011;4871;52.004;5.924;2023-02-01T00:32:00;11.00;;;2.90;;
9665;SDS011;4871;52.004;5.924;2023-02-01T00:33:00;11.00;;;2.90;;
9665;SDS011;4871;52.004;5.924;2023-02-01T00:34:00;11.00;;;2.90;;
9665;SDS011;4871;52.004;5.924;2023-02-01T00:35:00;11.00;;;2.90;;
9665;SDS011;4871;52.004;5.924;2023-02-01T00:36:01;11.00;;;2.90;;
9665;SDS011;4871;52.004;5.924;2023-02-01T00:37:00;11.00;;;2.90;;
9665;SDS011;4871;52.004;5.924;2023-02-01T00:38:00;11.00;;;2.90;;
9665;SDS011;4871;52.004;5.924;2023-02-01T00:39:00;11.00;;;2.90;;
9665;SDS011;4871;52.004;5.924;2023-02-01T00:40:00;11.00;;;2.90;;
9665;SDS011;4871;52.004;5.924;2023-02-01T00:41:04;11.00;;;2.90;;
9665;SDS011;4871;52.004;5.924;2023-02-01T00:42:01;11.00;;;2.90;;
9665;SDS011;4871;52.004;5.924;2023-02-01T00:43:00;11.00;;;2.90;;
9665;SDS011;4871;52.004;5.924;2023-02-01T00:44:01;11.00;;;2.90;;
9665;SDS011;4871;52.004;5.924;2023-02-01T00:45:00;11.00;;;2.90;;
9665;SDS011;4871;52.004;5.924;2023-02-01T00:46:00;11.00;;;2.90;;
9665;SDS011;4871;52.004;5.924;2023-02-01T00:47:00;11.00;;;2.90;;
9665;SDS011;4871;52.004;5.924;2023-02-01T00:48:00;11.00;;;2.90;;
9665;SDS011;4871;52.004;5.924;2023-02-01T00:49:01;11.00;;;2.90;;
9665;SDS011;4871;52.004;5.924;2023-02-01T00:50:00;11.00;;;2.90;;
9665;SDS011;4871;52.004;5.924;2023-02-01T00:51:02;11.00;;;2.90;;
9665;SDS011;4871;52.004;5.924;2023-02-01T00:52:00;11.00;;;2.90;;
9665;SDS011;4871;52.004;5.924;2023-02-01T00:53:00;11.00;;;2.90;;
9665;SDS011;4871;52.004;5.924;2023-02-01T00:54:00;11.00;;;2.90;;
9665;SDS011;4871;52.004;5.924;2023-02-01T00:55:00;10.50;;;2.90;;
9665;SDS011;4871;52.004;5.924;2023-02-01T00:56:01;10.50;;;2.90;;
9665;SDS011;4871;52.004;5.924;2023-02-01T00:57:00;10.50;;;2.90;;
9665;SDS011;4871;52.004;5.924;2023-02-01T00:58:00;10.50;;;2.90;;
9665;SDS011;4871;52.004;5.924;2023-02-01T00:59:03;10.50;;;2.90;;
9665;SDS011;4871;52.004;5.924;2023-02-01T01:00:00;10.50;;;2.90;;
9665;SDS011;4871;52.004;5.924;2023-02-01T01:01:17;10.50;;;2.90;;
9665;SDS011;4871;52.004;5.924;2023-02-01T01:02:00;10.50;;;2.90;;
9665;SDS011;4871;52.004;5.924;2023-02-01T01:03:00;10.50;;;2.90;;
9665;SDS011;4871;52.004;5.924;2023-02-01T01:04:00;10.50;;;2.90;;
9665;SDS011;4871;52.004;5.924;2023-02-01T01:05:00;10.50;;;2.90;;
9665;SDS011;4871;52.004;5.924;2023-02-01T01:06:01;10.50;;;2.90;;
9665;SDS011;4871;52.004;5.924;2023-02-01T01:07:00;10.50;;;2.90;;
9665;SDS011;4871;52.004;5.924;2023-02-01T01:08:00;10.50;;;2.90;;
9665;SDS011;4871;52.004;5.924;2023-02-01T01:09:01;10.50;;;2.90;;
9665;SDS011;4871;52.004;5.924;2023-02-01T01:10:00;10.50;;;2.90;;
9665;SDS011;4871;52.004;5.924;2023-02-01T01:11:08;10.50;;;2.90;;
9665;SDS011;4871;52.004;5.924;2023-02-01T01:12:02;10.50;;;2.90;;
9665;SDS011;4871;52.004;5.924;2023-02-01T01:13:00;10.50;;;2.90;;
9665;SDS011;4871;52.004;5.924;2023-02-01T01:14:00;10.50;;;2.90;;
9665;SDS011;4871;52.004;5.924;2023-02-01T01:15:00;10.50;;;2.90;;
9665;SDS011;4871;52.004;5.924;2023-02-01T01:16:03;10.50;;;2.90;;
9665;SDS011;4871;52.004;5.924;2023-02-01T01:17:00;10.50;;;2.90;;
9665;SDS011;4871;52.004;5.924;2023-02-01T01:18:00;10.50;;;2.90;;
9665;SDS011;4871;52.004;5.924;2023-02-01T01:19:00;10.50;;;2.90;;
9665;SDS011;4871;52.004;5.924;2023-02-01T01:20:00;10.50;;;2.90;;
9665;SDS011;4871;52.004;5.924;2023-02-01T01:21:00;10.50;;;2.90;;
9665;SDS011;4871;52.004;5.924;2023-02-01T01:22:00;10.50;;;2.90;;
9665;SDS011;4871;52.004;5.924;2023-02-01T01:23:00;10.50;;;2.90;;
9665;SDS011;4871;52.004;5.924;2023-02-01T01:24:00;10.50;;;2.90;;
9665;SDS011;4871;52.004;5.924;2023-02-01T01:25:00;9.10;;;2.30;;
9665;SDS011;4871;52.004;5.924;2023-02-01T01:26:00;9.10;;;2.30;;
9665;SDS011;4871;52.004;5.924;2023-02-01T01:27:00;9.10;;;2.30;;
9665;SDS011;4871;52.004;5.924;2023-02-01T01:28:00;9.10;;;2.30;;
9665;SDS011;4871;52.004;5.924;2023-02-01T01:29:00;9.10;;;2.30;;
9665;SDS011;4871;52.004;5.924;2023-02-01T01:30:00;9.10;;;2.30;;
9665;SDS011;4871;52.004;5.924;2023-02-01T01:31:01;9.10;;;2.30;;
9665;SDS011;4871;52.004;5.924;2023-02-01T01:32:00;9.10;;;2.30;;
9665;SDS011;4871;52.004;5.924;2023-02-01T01:33:00;9.10;;;2.30;;
9665;SDS011;4871;52.004;5.924;2023-02-01T01:34:00;9.10;;;2.30;;
9665;SDS011;4871;52.004;5.924;2023-02-01T01:35:01;9.10;;;2.30;;
9665;SDS011;4871;52.004;5.924;2023-02-01T01:36:00;9.10;;;2.30;;
9665;SDS011;4871;52.004;5.924;2023-02-01T01:37:00;9.10;;;2.30;;
9665;SDS011;4871;52.004;5.924;2023-02-01T01:38:00;9.10;;;2.30;;
9665;SDS011;4871;52.004;5.924;2023-02-01T01:39:00;9.10;;;2.30;;
9665;SDS011;4871;52.004;5.924;2023-02-01T01:40:00;9.10;;;2.30;;
9665;SDS011;4871;52.004;5.924;2023-02-01T01:41:01;9.10;;;2.30;;
9665;SDS011;4871;52.004;5.924;2023-02-01T01:42:00;9.10;;;2.30;;
9665;SDS011;4871;52.004;5.924;2023-02-01T01:43:00;9.10;;;2.30;;
9665;SDS011;4871;52.004;5.924;2023-02-01T01:44:01;9.10;;;2.30;;
9665;SDS011;4871;52.004;5.924;2023-02-01T01:45:02;9.10;;;2.30;;
9665;SDS011;4871;52.004;5.924;2023-02-01T01:46:00;9.10;;;2.30;;
9665;SDS011;4871;52.004;5.924;2023-02-01T01:47:00;9.10;;;2.30;;
9665;SDS011;4871;52.004;5.924;2023-02-01T01:48:03;9.10;;;2.30;;
9665;SDS011;4871;52.004;5.924;2023-02-01T01:49:02;9.10;;;2.30;;
9665;SDS011;4871;52.004;5.924;2023-02-01T01:50:01;9.10;;;2.30;;
9665;SDS011;4871;52.004;5.924;2023-02-01T01:51:01;9.10;;;2.30;;
9665;SDS011;4871;52.004;5.924;2023-02-01T01:52:00;9.10;;;2.30;;
9665;SDS011;4871;52.004;5.924;2023-02-01T01:53:02;9.10;;;2.30;;
9665;SDS011;4871;52.004;5.924;2023-02-01T01:54:06;8.50;;;2.10;;
9665;SDS011;4871;52.004;5.924;2023-02-01T01:55:00;8.50;;;2.10;;
9665;SDS011;4871;52.004;5.924;2023-02-01T01:56:00;8.50;;;2.10;;
9665;SDS011;4871;52.004;5.924;2023-02-01T01:57:01;8.50;;;2.10;;
9665;SDS011;4871;52.004;5.924;2023-02-01T01:58:02;8.50;;;2.10;;
9665;SDS011;4871;52.004;5.924;2023-02-01T01:59:00;8.50;;;2.10;;
9665;SDS011;4871;52.004;5.924;2023-02-01T02:00:03;8.50;;;2.10;;
9665;SDS011;4871;52.004;5.924;2023-02-01T02:01:00;8.50;;;2.10;;
9665;SDS011;4871;52.004;5.924;2023-02-01T02:02:00;8.50;;;2.10;;
9665;SDS011;4871;52.004;5.924;2023-02-01T02:03:03;8.50;;;2.10;;
9665;SDS011;4871;52.004;5.924;2023-02-01T02:04:00;8.50;;;2.10;;
9665;SDS011;4871;52.004;5.924;2023-02-01T02:05:00;8.50;;;2.10;;
9665;SDS011;4871;52.004;5.924;2023-02-01T02:06:00;8.50;;;2.10;;
9665;SDS011;4871;52.004;5.924;2023-02-01T02:07:05;8.50;;;2.10;;
9665;SDS011;4871;52.004;5.924;2023-02-01T02:08:01;8.50;;;2.10;;
9665;SDS011;4871;52.004;5.924;2023-02-01T02:09:00;8.50;;;2.10;;
9665;SDS011;4871;52.004;5.924;2023-02-01T02:10:00;8.50;;;2.10;;
9665;SDS011;4871;52.004;5.924;2023-02-01T02:11:02;8.50;;;2.10;;
9665;SDS011;4871;52.004;5.924;2023-02-01T02:12:00;8.50;;;2.10;;
9665;SDS011;4871;52.004;5.924;2023-02-01T02:13:00;8.50;;;2.10;;
9665;SDS011;4871;52.004;5.924;2023-02-01T02:14:00;8.50;;;2.10;;
9665;SDS011;4871;52.004;5.924;2023-02-01T02:15:00;8.50;;;2.10;;
9665;SDS011;4871;52.004;5.924;2023-02-01T02:17:03;8.50;;;2.10;;
9665;SDS011;4871;52.004;5.924;2023-02-01T02:18:04;8.50;;;2.10;;
9665;SDS011;4871;52.004;5.924;2023-02-01T02:20:07;8.50;;;2.10;;
9665;SDS011;4871;52.004;5.924;2023-02-01T02:21:07;8.50;;;2.10;;
9665;SDS011;4871;52.004;5.924;2023-02-01T02:27:02;10.40;;;2.40;;
9665;SDS011;4871;52.004;5.924;2023-02-01T02:28:07;10.40;;;2.40;;
9665;SDS011;4871;52.004;5.924;2023-02-01T02:33:14;10.40;;;2.40;;
9665;SDS011;4871;52.004;5.924;2023-02-01T02:34:04;10.40;;;2.40;;
9665;SDS011;4871;52.004;5.924;2023-02-01T02:38:02;10.40;;;2.40;;
9665;SDS011;4871;52.004;5.924;2023-02-01T02:39:04;10.40;;;2.40;;
9665;SDS011;4871;52.004;5.924;2023-02-01T02:41:05;10.40;;;2.40;;
9665;SDS011;4871;52.004;5.924;2023-02-01T02:43:21;10.40;;;2.40;;
9665;SDS011;4871;52.004;5.924;2023-02-01T02:44:12;10.40;;;2.40;;
9665;SDS011;4871;52.004;5.924;2023-02-01T02:45:19;10.40;;;2.40;;
9665;SDS011;4871;52.004;5.924;2023-02-01T02:46:14;10.40;;;2.40;;
9665;SDS011;4871;52.004;5.924;2023-02-01T02:47:14;10.40;;;2.40;;
9665;SDS011;4871;52.004;5.924;2023-02-01T02:48:04;10.40;;;2.40;;
9665;SDS011;4871;52.004;5.924;2023-02-01T02:51:13;10.40;;;2.40;;
9665;SDS011;4871;52.004;5.924;2023-02-01T02:53:12;10.40;;;2.40;;
9665;SDS011;4871;52.004;5.924;2023-02-01T02:54:11;10.20;;;2.20;;
9665;SDS011;4871;52.004;5.924;2023-02-01T02:55:00;10.20;;;2.20;;
9665;SDS011;4871;52.004;5.924;2023-02-01T02:56:10;10.20;;;2.20;;
9665;SDS011;4871;52.004;5.924;2023-02-01T02:57:10;10.20;;;2.20;;
9665;SDS011;4871;52.004;5.924;2023-02-01T02:58:10;10.20;;;2.20;;
9665;SDS011;4871;52.004;5.924;2023-02-01T02:59:11;10.20;;;2.20;;
9665;SDS011;4871;52.004;5.924;2023-02-01T03:00:11;10.20;;;2.20;;
9665;SDS011;4871;52.004;5.924;2023-02-01T03:01:10;10.20;;;2.20;;
9665;SDS011;4871;52.004;5.924;2023-02-01T03:02:10;10.20;;;2.20;;
9665;SDS011;4871;52.004;5.924;2023-02-01T03:03:11;10.20;;;2.20;;
9665;SDS011;4871;52.004;5.924;2023-02-01T03:04:03;10.20;;;2.20;;
9665;SDS011;4871;52.004;5.924;2023-02-01T03:05:00;10.20;;;2.20;;
9665;SDS011;4871;52.004;5.924;2023-02-01T03:06:00;10.20;;;2.20;;
9665;SDS011;4871;52.004;5.924;2023-02-01T03:08:03;10.20;;;2.20;;
9665;SDS011;4871;52.004;5.924;2023-02-01T03:09:01;10.20;;;2.20;;
9665;SDS011;4871;52.004;5.924;2023-02-01T03:10:05;10.20;;;2.20;;
9665;SDS011;4871;52.004;5.924;2023-02-01T03:12:11;10.20;;;2.20;;
9665;SDS011;4871;52.004;5.924;2023-02-01T03:13:05;10.20;;;2.20;;
9665;SDS011;4871;52.004;5.924;2023-02-01T03:14:00;10.20;;;2.20;;
9665;SDS011;4871;52.004;5.924;2023-02-01T03:15:03;10.20;;;2.20;;
9665;SDS011;4871;52.004;5.924;2023-02-01T03:16:02;10.20;;;2.20;;
9665;SDS011;4871;52.004;5.924;2023-02-01T03:17:03;10.20;;;2.20;;
9665;SDS011;4871;52.004;5.924;2023-02-01T03:18:00;10.20;;;2.20;;
9665;SDS011;4871;52.004;5.924;2023-02-01T03:19:02;10.20;;;2.20;;
9665;SDS011;4871;52.004;5.924;2023-02-01T03:20:01;10.20;;;2.20;;
9665;SDS011;4871;52.004;5.924;2023-02-01T03:21:00;10.20;;;2.20;;
9665;SDS011;4871;52.004;5.924;2023-02-01T03:22:02;10.20;;;2.20;;
9665;SDS011;4871;52.004;5.924;2023-02-01T03:23:00;10.20;;;2.20;;
9665;SDS011;4871;52.004;5.924;2023-02-01T03:24:02;12.10;;;2.90;;
9665;SDS011;4871;52.004;5.924;2023-02-01T03:25:03;12.10;;;2.90;;
9665;SDS011;4871;52.004;5.924;2023-02-01T03:26:00;12.10;;;2.90;;
9665;SDS011;4871;52.004;5.924;2023-02-01T03:27:02;12.10;;;2.90;;
9665;SDS011;4871;52.004;5.924;2023-02-01T03:28:02;12.10;;;2.90;;
9665;SDS011;4871;52.004;5.924;2023-02-01T03:29:04;12.10;;;2.90;;
9665;SDS011;4871;52.004;5.924;2023-02-01T03:30:03;12.10;;;2.90;;
9665;SDS011;4871;52.004;5.924;2023-02-01T03:31:00;12.10;;;2.90;;
9665;SDS011;4871;52.004;5.924;2023-02-01T03:32:00;12.10;;;2.90;;
9665;SDS011;4871;52.004;5.924;2023-02-01T03:33:01;12.10;;;2.90;;
9665;SDS011;4871;52.004;5.924;2023-02-01T03:34:00;12.10;;;2.90;;
9665;SDS011;4871;52.004;5.924;2023-02-01T03:35:04;12.10;;;2.90;;
9665;SDS011;4871;52.004;5.924;2023-02-01T03:36:05;12.10;;;2.90;;
9665;SDS011;4871;52.004;5.924;2023-02-01T03:37:04;12.10;;;2.90;;
9665;SDS011;4871;52.004;5.924;2023-02-01T03:38:03;12.10;;;2.90;;
9665;SDS011;4871;52.004;5.924;2023-02-01T03:40:01;12.10;;;2.90;;
9665;SDS011;4871;52.004;5.924;2023-02-01T03:42:01;12.10;;;2.90;;
9665;SDS011;4871;52.004;5.924;2023-02-01T03:43:00;12.10;;;2.90;;
9665;SDS011;4871;52.004;5.924;2023-02-01T03:45:02;12.10;;;2.90;;
9665;SDS011;4871;52.004;5.924;2023-02-01T03:46:01;12.10;;;2.90;;
9665;SDS011;4871;52.004;5.924;2023-02-01T03:47:02;12.10;;;2.90;;
9665;SDS011;4871;52.004;5.924;2023-02-01T03:48:00;12.10;;;2.90;;
9665;SDS011;4871;52.004;5.924;2023-02-01T03:49:01;12.10;;;2.90;;
9665;SDS011;4871;52.004;5.924;2023-02-01T03:50:01;12.10;;;2.90;;
9665;SDS011;4871;52.004;5.924;2023-02-01T03:51:00;12.10;;;2.90;;
9665;SDS011;4871;52.004;5.924;2023-02-01T03:52:00;12.10;;;2.90;;
9665;SDS011;4871;52.004;5.924;2023-02-01T03:53:02;12.10;;;2.90;;
9665;SDS011;4871;52.004;5.924;2023-02-01T03:54:01;11.20;;;2.70;;
9665;SDS011;4871;52.004;5.924;2023-02-01T03:55:01;11.20;;;2.70;;
9665;SDS011;4871;52.004;5.924;2023-02-01T03:56:00;11.20;;;2.70;;
9665;SDS011;4871;52.004;5.924;2023-02-01T03:57:01;11.20;;;2.70;;
9665;SDS011;4871;52.004;5.924;2023-02-01T03:58:09;11.20;;;2.70;;
9665;SDS011;4871;52.004;5.924;2023-02-01T03:59:00;11.20;;;2.70;;
9665;SDS011;4871;52.004;5.924;2023-02-01T04:00:05;11.20;;;2.70;;
9665;SDS011;4871;52.004;5.924;2023-02-01T04:01:00;11.20;;;2.70;;
9665;SDS011;4871;52.004;5.924;2023-02-01T04:02:00;11.20;;;2.70;;
9665;SDS011;4871;52.004;5.924;2023-02-01T04:03:00;11.20;;;2.70;;
9665;SDS011;4871;52.004;5.924;2023-02-01T04:04:00;11.20;;;2.70;;
9665;SDS011;4871;52.004;5.924;2023-02-01T04:05:00;11.20;;;2.70;;
9665;SDS011;4871;52.004;5.924;2023-02-01T04:06:00;11.20;;;2.70;;
9665;SDS011;4871;52.004;5.924;2023-02-01T04:07:00;11.20;;;2.70;;
9665;SDS011;4871;52.004;5.924;2023-02-01T04:08:00;11.20;;;2.70;;
9665;SDS011;4871;52.004;5.924;2023-02-01T04:09:00;11.20;;;2.70;;
9665;SDS011;4871;52.004;5.924;2023-02-01T04:10:00;11.20;;;2.70;;
9665;SDS011;4871;52.004;5.924;2023-02-01T04:11:00;11.20;;;2.70;;
9665;SDS011;4871;52.004;5.924;2023-02-01T04:12:00;11.20;;;2.70;;
9665;SDS011;4871;52.004;5.924;2023-02-01T04:13:00;11.20;;;2.70;;
9665;SDS011;4871;52.004;5.924;2023-02-01T04:14:04;11.20;;;2.70;;
9665;SDS011;4871;52.004;5.924;2023-02-01T04:15:00;11.20;;;2.70;;
9665;SDS011;4871;52.004;5.924;2023-02-01T04:16:00;11.20;;;2.70;;
9665;SDS011;4871;52.004;5.924;2023-02-01T04:17:00;11.20;;;2.70;;
9665;SDS011;4871;52.004;5.924;2023-02-01T04:18:00;11.20;;;2.70;;
9665;SDS011;4871;52.004;5.924;2023-02-01T04:19:02;11.20;;;2.70;;
9665;SDS011;4871;52.004;5.924;2023-02-01T04:20:00;11.20;;;2.70;;
9665;SDS011;4871;52.004;5.924;2023-02-01T04:21:01;11.20;;;2.70;;
9665;SDS011;4871;52.004;5.924;2023-02-01T04:22:00;11.20;;;2.70;;
9665;SDS011;4871;52.004;5.924;2023-02-01T04:23:02;11.20;;;2.70;;
9665;SDS011;4871;52.004;5.924;2023-02-01T04:24:00;11.60;;;2.90;;
9665;SDS011;4871;52.004;5.924;2023-02-01T04:25:01;11.60;;;2.90;;
9665;SDS011;4871;52.004;5.924;2023-02-01T04:26:01;11.60;;;2.90;;
9665;SDS011;4871;52.004;5.924;2023-02-01T04:27:02;11.60;;;2.90;;
9665;SDS011;4871;52.004;5.924;2023-02-01T04:28:00;11.60;;;2.90;;
9665;SDS011;4871;52.004;5.924;2023-02-01T04:29:00;11.60;;;2.90;;
9665;SDS011;4871;52.004;5.924;2023-02-01T04:30:01;11.60;;;2.90;;
9665;SDS011;4871;52.004;5.924;2023-02-01T04:31:00;11.60;;;2.90;;
9665;SDS011;4871;52.004;5.924;2023-02-01T04:32:00;11.60;;;2.90;;
9665;SDS011;4871;52.004;5.924;2023-02-01T04:33:03;11.60;;;2.90;;
9665;SDS011;4871;52.004;5.924;2023-02-01T04:34:00;11.60;;;2.90;;
9665;SDS011;4871;52.004;5.924;2023-02-01T04:35:00;11.60;;;2.90;;
9665;SDS011;4871;52.004;5.924;2023-02-01T04:36:00;11.60;;;2.90;;
9665;SDS011;4871;52.004;5.924;2023-02-01T04:37:00;11.60;;;2.90;;
9665;SDS011;4871;52.004;5.924;2023-02-01T04:38:00;11.60;;;2.90;;
9665;SDS011;4871;52.004;5.924;2023-02-01T04:39:00;11.60;;;2.90;;
9665;SDS011;4871;52.004;5.924;2023-02-01T04:40:00;11.60;;;2.90;;
9665;SDS011;4871;52.004;5.924;2023-02-01T04:41:00;11.60;;;2.90;;
9665;SDS011;4871;52.004;5.924;2023-02-01T04:42:00;11.60;;;2.90;;
9665;SDS011;4871;52.004;5.924;2023-02-01T04:43:00;11.60;;;2.90;;
9665;SDS011;4871;52.004;5.924;2023-02-01T04:44:00;11.60;;;2.90;;
9665;SDS011;4871;52.004;5.924;2023-02-01T04:45:00;11.60;;;2.90;;
9665;SDS011;4871;52.004;5.924;2023-02-01T04:46:00;11.60;;;2.90;;
9665;SDS011;4871;52.004;5.924;2023-02-01T04:47:00;11.60;;;2.90;;
9665;SDS011;4871;52.004;5.924;2023-02-01T04:48:00;11.60;;;2.90;;
9665;SDS011;4871;52.004;5.924;2023-02-01T04:49:00;11.60;;;2.90;;
9665;SDS011;4871;52.004;5.924;2023-02-01T04:50:00;11.60;;;2.90;;
9665;SDS011;4871;52.004;5.924;2023-02-01T04:51:00;11.60;;;2.90;;
9665;SDS011;4871;52.004;5.924;2023-02-01T04:52:00;11.60;;;2.90;;
9665;SDS011;4871;52.004;5.924;2023-02-01T04:53:00;11.60;;;2.90;;
9665;SDS011;4871;52.004;5.924;2023-02-01T04:54:00;8.90;;;2.60;;
9665;SDS011;4871;52.004;5.924;2023-02-01T04:55:03;8.90;;;2.60;;
9665;SDS011;4871;52.004;5.924;2023-02-01T04:56:00;8.90;;;2.60;;
9665;SDS011;4871;52.004;5.924;2023-02-01T04:57:00;8.90;;;2.60;;
9665;SDS011;4871;52.004;5.924;2023-02-01T04:58:00;8.90;;;2.60;;
9665;SDS011;4871;52.004;5.924;2023-02-01T04:59:02;8.90;;;2.60;;
9665;SDS011;4871;52.004;5.924;2023-02-01T05:00:00;8.90;;;2.60;;
9665;SDS011;4871;52.004;5.924;2023-02-01T05:01:03;8.90;;;2.60;;
9665;SDS011;4871;52.004;5.924;2023-02-01T05:02:00;8.90;;;2.60;;
9665;SDS011;4871;52.004;5.924;2023-02-01T05:03:00;8.90;;;2.60;;
9665;SDS011;4871;52.004;5.924;2023-02-01T05:04:00;8.90;;;2.60;;
9665;SDS011;4871;52.004;5.924;2023-02-01T05:05:00;8.90;;;2.60;;
9665;SDS011;4871;52.004;5.924;2023-02-01T05:06:00;8.90;;;2.60;;
9665;SDS011;4871;52.004;5.924;2023-02-01T05:07:03;8.90;;;2.60;;
9665;SDS011;4871;52.004;5.924;2023-02-01T05:08:00;8.90;;;2.60;;
9665;SDS011;4871;52.004;5.924;2023-02-01T05:09:00;8.90;;;2.60;;
9665;SDS011;4871;52.004;5.924;2023-02-01T05:10:00;8.90;;;2.60;;
9665;SDS011;4871;52.004;5.924;2023-02-01T05:11:02;8.90;;;2.60;;
9665;SDS011;4871;52.004;5.924;2023-02-01T05:12:10;8.90;;;2.60;;
9665;SDS011;4871;52.004;5.924;2023-02-01T05:13:11;8.90;;;2.60;;
9665;SDS011;4871;52.004;5.924;2023-02-01T05:14:00;8.90;;;2.60;;
9665;SDS011;4871;52.004;5.924;2023-02-01T05:15:00;8.90;;;2.60;;
9665;SDS011;4871;52.004;5.924;2023-02-01T05:16:00;8.90;;;2.60;;
9665;SDS011;4871;52.004;5.924;2023-02-01T05:17:00;8.90;;;2.60;;
9665;SDS011;4871;52.004;5.924;2023-02-01T05:18:00;8.90;;;2.60;;
9665;SDS011;4871;52.004;5.924;2023-02-01T05:19:00;8.90;;;2.60;;
9665;SDS011;4871;52.004;5.924;2023-02-01T05:20:00;8.90;;;2.60;;
9665;SDS011;4871;52.004;5.924;2023-02-01T05:21:01;8.90;;;2.60;;
9665;SDS011;4871;52.004;5.924;2023-02-01T05:22:00;8.90;;;2.60;;
9665;SDS011;4871;52.004;5.924;2023-02-01T05:23:00;8.90;;;2.60;;
9665;SDS011;4871;52.004;5.924;2023-02-01T05:24:10;9.00;;;2.40;;
9665;SDS011;4871;52.004;5.924;2023-02-01T05:25:01;9.00;;;2.40;;
9665;SDS011;4871;52.004;5.924;2023-02-01T05:26:00;9.00;;;2.40;;
9665;SDS011;4871;52.004;5.924;2023-02-01T05:27:00;9.00;;;2.40;;
9665;SDS011;4871;52.004;5.924;2023-02-01T05:28:00;9.00;;;2.40;;
9665;SDS011;4871;52.004;5.924;2023-02-01T05:29:00;9.00;;;2.40;;
9665;SDS011;4871;52.004;5.924;2023-02-01T05:30:00;9.00;;;2.40;;
9665;SDS011;4871;52.004;5.924;2023-02-01T05:31:08;9.00;;;2.40;;
9665;SDS011;4871;52.004;5.924;2023-02-01T05:32:00;9.00;;;2.40;;
9665;SDS011;4871;52.004;5.924;2023-02-01T05:33:01;9.00;;;2.40;;
9665;SDS011;4871;52.004;5.924;2023-02-01T05:34:00;9.00;;;2.40;;
9665;SDS011;4871;52.004;5.924;2023-02-01T05:35:00;9.00;;;2.40;;
9665;SDS011;4871;52.004;5.924;2023-02-01T05:36:00;9.00;;;2.40;;
9665;SDS011;4871;52.004;5.924;2023-02-01T05:37:00;9.00;;;2.40;;
9665;SDS011;4871;52.004;5.924;2023-02-01T05:38:00;9.00;;;2.40;;
9665;SDS011;4871;52.004;5.924;2023-02-01T05:39:00;9.00;;;2.40;;
9665;SDS011;4871;52.004;5.924;2023-02-01T05:40:00;9.00;;;2.40;;
9665;SDS011;4871;52.004;5.924;2023-02-01T05:41:00;9.00;;;2.40;;
9665;SDS011;4871;52.004;5.924;2023-02-01T05:42:00;9.00;;;2.40;;
9665;SDS011;4871;52.004;5.924;2023-02-01T05:43:01;9.00;;;2.40;;
9665;SDS011;4871;52.004;5.924;2023-02-01T05:44:00;9.00;;;2.40;;
9665;SDS011;4871;52.004;5.924;2023-02-01T05:45:05;9.00;;;2.40;;
9665;SDS011;4871;52.004;5.924;2023-02-01T05:46:00;9.00;;;2.40;;
9665;SDS011;4871;52.004;5.924;2023-02-01T05:47:01;9.00;;;2.40;;
9665;SDS011;4871;52.004;5.924;2023-02-01T05:48:00;9.00;;;2.40;;
9665;SDS011;4871;52.004;5.924;2023-02-01T05:49:03;9.00;;;2.40;;
9665;SDS011;4871;52.004;5.924;2023-02-01T05:50:00;9.00;;;2.40;;
9665;SDS011;4871;52.004;5.924;2023-02-01T05:51:00;9.00;;;2.40;;
9665;SDS011;4871;52.004;5.924;2023-02-01T05:52:00;9.00;;;2.40;;
9665;SDS011;4871;52.004;5.924;2023-02-01T05:53:00;9.00;;;2.40;;
9665;SDS011;4871;52.004;5.924;2023-02-01T05:54:00;10.50;;;2.90;;
9665;SDS011;4871;52.004;5.924;2023-02-01T05:55:01;10.50;;;2.90;;
9665;SDS011;4871;52.004;5.924;2023-02-01T05:56:00;10.50;;;2.90;;
9665;SDS011;4871;52.004;5.924;2023-02-01T05:57:00;10.50;;;2.90;;
9665;SDS011;4871;52.004;5.924;2023-02-01T05:58:00;10.50;;;2.90;;
9665;SDS011;4871;52.004;5.924;2023-02-01T05:59:00;10.50;;;2.90;;
9665;SDS011;4871;52.004;5.924;2023-02-01T06:00:00;10.50;;;2.90;;
9665;SDS011;4871;52.004;5.924;2023-02-01T06:01:00;10.50;;;2.90;;
9665;SDS011;4871;52.004;5.924;2023-02-01T06:02:00;10.50;;;2.90;;
9665;SDS011;4871;52.004;5.924;2023-02-01T06:03:01;10.50;;;2.90;;
9665;SDS011;4871;52.004;5.924;2023-02-01T06:04:00;10.50;;;2.90;;
9665;SDS011;4871;52.004;5.924;2023-02-01T06:05:00;10.50;;;2.90;;
9665;SDS011;4871;52.004;5.924;2023-02-01T06:06:01;10.50;;;2.90;;
9665;SDS011;4871;52.004;5.924;2023-02-01T06:07:00;10.50;;;2.90;;
9665;SDS011;4871;52.004;5.924;2023-02-01T06:08:00;10.50;;;2.90;;
9665;SDS011;4871;52.004;5.924;2023-02-01T06:09:00;10.50;;;2.90;;
9665;SDS011;4871;52.004;5.924;2023-02-01T06:10:00;10.50;;;2.90;;
9665;SDS011;4871;52.004;5.924;2023-02-01T06:11:03;10.50;;;2.90;;
9665;SDS011;4871;52.004;5.924;2023-02-01T06:12:01;10.50;;;2.90;;
9665;SDS011;4871;52.004;5.924;2023-02-01T06:13:00;10.50;;;2.90;;
9665;SDS011;4871;52.004;5.924;2023-02-01T06:14:00;10.50;;;2.90;;
9665;SDS011;4871;52.004;5.924;2023-02-01T06:15:00;10.50;;;2.90;;
9665;SDS011;4871;52.004;5.924;2023-02-01T06:16:01;10.50;;;2.90;;
9665;SDS011;4871;52.004;5.924;2023-02-01T06:17:00;10.50;;;2.90;;
9665;SDS011;4871;52.004;5.924;2023-02-01T06:18:00;10.50;;;2.90;;
9665;SDS011;4871;52.004;5.924;2023-02-01T06:19:00;10.50;;;2.90;;
9665;SDS011;4871;52.004;5.924;2023-02-01T06:20:00;10.50;;;2.90;;
9665;SDS011;4871;52.004;5.924;2023-02-01T06:21:02;10.50;;;2.90;;
9665;SDS011;4871;52.004;5.924;2023-02-01T06:22:00;10.50;;;2.90;;
9665;SDS011;4871;52.004;5.924;2023-02-01T06:23:04;13.50;;;2.70;;
9665;SDS011;4871;52.004;5.924;2023-02-01T06:24:00;13.50;;;2.70;;
9665;SDS011;4871;52.004;5.924;2023-02-01T06:25:02;13.50;;;2.70;;
9665;SDS011;4871;52.004;5.924;2023-02-01T06:26:03;13.50;;;2.70;;
9665;SDS011;4871;52.004;5.924;2023-02-01T06:27:00;13.50;;;2.70;;
9665;SDS011;4871;52.004;5.924;2023-02-01T06:28:00;13.50;;;2.70;;
9665;SDS011;4871;52.004;5.924;2023-02-01T06:29:00;13.50;;;2.70;;
9665;SDS011;4871;52.004;5.924;2023-02-01T06:30:00;13.50;;;2.70;;
9665;SDS011;4871;52.004;5.924;2023-02-01T06:31:04;13.50;;;2.70;;
9665;SDS011;4871;52.004;5.924;2023-02-01T06:32:00;13.50;;;2.70;;